FDX42 KMEM-KFAR
Flight info
| Callsign | FDX42 |
|---|---|
| Flight time | 1h 56m |
| Altitude | 32000 |
| Route | JTEEE5 ODATE HESTN JAVAS RWF FAR |
| Aircraft | B77L/H-SDE1E2E3FGHIJ2J3J4J5M1RWXY/LB1D1 |
Departure
| Time | 2026-04-21 17:57 |
|---|---|
| Airport | Memphis International Airport (KMEM) |
Arrival
| Time | 2026-04-21 19:54 |
|---|---|
| Airport | Hector International Airport (KFAR) |
| Time | Latitude | Longitude | Altitude | Speed | Heading |
|---|---|---|---|---|---|
| 2026-04-21 17:24 | 35.06182 | -89.97722 | 266 ft | 0 kts | 140° |
| 2026-04-21 17:46 | 35.06172 | -89.97717 | 266 ft | 3 kts | 177° |
| 2026-04-21 17:46 | 35.06162 | -89.97729 | 266 ft | 0 kts | 236° |
| 2026-04-21 17:47 | 35.06158 | -89.97736 | 266 ft | 1 kts | 236° |
| 2026-04-21 17:47 | 35.06139 | -89.97769 | 265 ft | 6 kts | 232° |
| 2026-04-21 17:47 | 35.06108 | -89.97783 | 265 ft | 4 kts | 182° |
| 2026-04-21 17:47 | 35.06100 | -89.97783 | 265 ft | 0 kts | 181° |
| 2026-04-21 17:52 | 35.06047 | -89.97784 | 266 ft | 9 kts | 179° |
| 2026-04-21 17:52 | 35.05993 | -89.97782 | 267 ft | 6 kts | 179° |
| 2026-04-21 17:53 | 35.05956 | -89.97781 | 268 ft | 4 kts | 179° |
| 2026-04-21 17:53 | 35.05934 | -89.97781 | 268 ft | 1 kts | 179° |
| 2026-04-21 17:53 | 35.05927 | -89.97781 | 268 ft | 1 kts | 179° |
| 2026-04-21 17:53 | 35.05897 | -89.97781 | 269 ft | 4 kts | 179° |
| 2026-04-21 17:54 | 35.05862 | -89.97780 | 270 ft | 7 kts | 179° |
| 2026-04-21 17:54 | 35.05805 | -89.97779 | 271 ft | 9 kts | 179° |
| 2026-04-21 17:54 | 35.05735 | -89.97779 | 272 ft | 11 kts | 180° |
| 2026-04-21 17:54 | 35.05651 | -89.97779 | 274 ft | 11 kts | 180° |
| 2026-04-21 17:55 | 35.05570 | -89.97780 | 275 ft | 12 kts | 181° |
| 2026-04-21 17:55 | 35.05480 | -89.97777 | 277 ft | 11 kts | 162° |
| 2026-04-21 17:55 | 35.05444 | -89.97709 | 279 ft | 10 kts | 107° |
| 2026-04-21 17:55 | 35.05413 | -89.97627 | 280 ft | 10 kts | 142° |
| 2026-04-21 17:56 | 35.05355 | -89.97616 | 282 ft | 7 kts | 176° |
| 2026-04-21 17:56 | 35.05294 | -89.97613 | 284 ft | 15 kts | 179° |
| 2026-04-21 17:56 | 35.05075 | -89.97611 | 288 ft | 63 kts | 180° |
| 2026-04-21 17:56 | 35.04327 | -89.97595 | 305 ft | 149 kts | 181° |
| 2026-04-21 17:57 | 35.03097 | -89.97606 | 709 ft | 193 kts | 184° |
| 2026-04-21 17:57 | 35.01746 | -89.97629 | 2018 ft | 191 kts | 182° |
| 2026-04-21 17:57 | 35.00629 | -89.97618 | 3377 ft | 155 kts | 183° |
| 2026-04-21 17:57 | 34.99530 | -89.98084 | 3553 ft | 180 kts | 216° |
| 2026-04-21 17:58 | 34.98570 | -89.99018 | 4380 ft | 173 kts | 214° |
| 2026-04-21 17:58 | 34.97780 | -90.00175 | 4877 ft | 187 kts | 250° |
| 2026-04-21 17:58 | 34.97825 | -90.01772 | 5394 ft | 207 kts | 293° |
| 2026-04-21 17:58 | 34.98973 | -90.03083 | 5495 ft | 255 kts | 332° |
| 2026-04-21 17:59 | 35.00794 | -90.03514 | 5222 ft | 282 kts | 355° |
| 2026-04-21 17:59 | 35.02782 | -90.03547 | 5027 ft | 282 kts | 357° |
| 2026-04-21 17:59 | 35.04803 | -90.03551 | 5058 ft | 296 kts | 358° |
| 2026-04-21 17:59 | 35.06873 | -90.03552 | 6080 ft | 297 kts | 357° |
| 2026-04-21 18:00 | 35.08904 | -90.03552 | 7270 ft | 292 kts | 358° |
| 2026-04-21 18:00 | 35.10924 | -90.03552 | 8236 ft | 293 kts | 358° |
| 2026-04-21 18:00 | 35.12967 | -90.03554 | 9111 ft | 297 kts | 358° |
| 2026-04-21 18:00 | 35.15036 | -90.03554 | 10010 ft | 299 kts | 358° |
| 2026-04-21 18:01 | 35.17128 | -90.03556 | 10694 ft | 310 kts | 358° |
| 2026-04-21 18:01 | 35.19333 | -90.03559 | 11240 ft | 326 kts | 358° |
| 2026-04-21 18:01 | 35.21669 | -90.03562 | 11811 ft | 341 kts | 358° |
| 2026-04-21 18:01 | 35.24093 | -90.03565 | 12398 ft | 356 kts | 358° |
| 2026-04-21 18:02 | 35.25744 | -90.03567 | 12782 ft | 365 kts | 358° |
| 2026-04-21 18:02 | 35.29226 | -90.03571 | 13585 ft | 384 kts | 358° |
| 2026-04-21 18:02 | 35.31967 | -90.03574 | 14185 ft | 398 kts | 358° |
| 2026-04-21 18:02 | 35.34741 | -90.03576 | 14932 ft | 406 kts | 358° |
| 2026-04-21 18:03 | 35.37597 | -90.03577 | 15788 ft | 412 kts | 358° |
| 2026-04-21 18:03 | 35.40482 | -90.03579 | 16620 ft | 417 kts | 358° |
| 2026-04-21 18:03 | 35.43379 | -90.03580 | 17459 ft | 421 kts | 358° |
| 2026-04-21 18:03 | 35.46339 | -90.03582 | 18262 ft | 427 kts | 358° |
| 2026-04-21 18:04 | 35.49286 | -90.03584 | 19085 ft | 431 kts | 358° |
| 2026-04-21 18:04 | 35.52290 | -90.03585 | 19908 ft | 434 kts | 358° |
| 2026-04-21 18:04 | 35.55327 | -90.03587 | 20748 ft | 438 kts | 357° |
| 2026-04-21 18:04 | 35.58387 | -90.03588 | 21502 ft | 442 kts | 357° |
| 2026-04-21 18:05 | 35.61485 | -90.03590 | 22229 ft | 447 kts | 357° |
| 2026-04-21 18:05 | 35.64599 | -90.03615 | 22963 ft | 449 kts | 354° |
| 2026-04-21 18:05 | 35.67736 | -90.03875 | 23675 ft | 452 kts | 352° |
| 2026-04-21 18:05 | 35.70857 | -90.04177 | 24378 ft | 455 kts | 352° |
| 2026-04-21 18:06 | 35.74064 | -90.04480 | 25022 ft | 460 kts | 352° |
| 2026-04-21 18:06 | 35.77226 | -90.04867 | 25613 ft | 462 kts | 347° |
| 2026-04-21 18:06 | 35.80363 | -90.05802 | 26211 ft | 462 kts | 339° |
| 2026-04-21 18:06 | 35.83400 | -90.07038 | 26863 ft | 464 kts | 337° |
| 2026-04-21 18:07 | 35.86477 | -90.08320 | 27531 ft | 467 kts | 337° |
| 2026-04-21 18:07 | 35.89547 | -90.09598 | 28184 ft | 471 kts | 337° |
| 2026-04-21 18:07 | 35.92666 | -90.10896 | 28800 ft | 474 kts | 337° |
| 2026-04-21 18:07 | 35.95789 | -90.12195 | 29425 ft | 478 kts | 337° |
| 2026-04-21 18:08 | 35.98946 | -90.13507 | 30173 ft | 479 kts | 337° |
| 2026-04-21 18:08 | 36.02078 | -90.14807 | 31160 ft | 474 kts | 336° |
| 2026-04-21 18:08 | 36.05171 | -90.16092 | 32005 ft | 470 kts | 336° |
| 2026-04-21 18:08 | 36.08302 | -90.17395 | 32240 ft | 470 kts | 336° |
| 2026-04-21 18:09 | 36.14432 | -90.19948 | 32258 ft | 464 kts | 336° |
| 2026-04-21 18:09 | 36.20588 | -90.22517 | 32266 ft | 466 kts | 336° |
| 2026-04-21 18:10 | 36.26702 | -90.25072 | 32277 ft | 464 kts | 336° |
| 2026-04-21 18:10 | 36.32815 | -90.27629 | 32222 ft | 464 kts | 336° |
| 2026-04-21 18:11 | 36.38910 | -90.30183 | 32238 ft | 465 kts | 336° |
| 2026-04-21 18:11 | 36.45048 | -90.32760 | 32216 ft | 464 kts | 337° |
| 2026-04-21 18:12 | 36.51150 | -90.35326 | 32237 ft | 464 kts | 336° |
| 2026-04-21 18:12 | 36.57308 | -90.37919 | 32209 ft | 464 kts | 337° |
| 2026-04-21 18:13 | 36.63405 | -90.40492 | 32240 ft | 466 kts | 337° |
| 2026-04-21 18:13 | 36.69501 | -90.43067 | 32274 ft | 464 kts | 338° |
| 2026-04-21 18:14 | 36.78711 | -90.46967 | 32256 ft | 464 kts | 337° |
| 2026-04-21 18:15 | 36.84827 | -90.49562 | 32268 ft | 465 kts | 338° |
| 2026-04-21 18:15 | 36.90928 | -90.52155 | 32207 ft | 464 kts | 338° |
| 2026-04-21 18:16 | 36.97068 | -90.54770 | 32198 ft | 466 kts | 338° |
| 2026-04-21 18:16 | 37.03212 | -90.57390 | 32210 ft | 465 kts | 338° |
| 2026-04-21 18:17 | 37.09338 | -90.60008 | 32193 ft | 465 kts | 338° |
| 2026-04-21 18:17 | 37.15456 | -90.62625 | 32191 ft | 464 kts | 338° |
| 2026-04-21 18:18 | 37.21576 | -90.65249 | 32195 ft | 465 kts | 337° |
| 2026-04-21 18:18 | 37.27667 | -90.67864 | 32206 ft | 464 kts | 337° |
| 2026-04-21 18:19 | 37.33788 | -90.70498 | 32189 ft | 464 kts | 337° |
| 2026-04-21 18:19 | 37.39907 | -90.73135 | 32196 ft | 464 kts | 338° |
| 2026-04-21 18:20 | 37.45969 | -90.75751 | 32193 ft | 465 kts | 337° |
| 2026-04-21 18:20 | 37.52092 | -90.78399 | 32191 ft | 464 kts | 337° |
| 2026-04-21 18:21 | 37.58186 | -90.81039 | 32185 ft | 464 kts | 337° |
| 2026-04-21 18:21 | 37.64272 | -90.83679 | 32185 ft | 464 kts | 337° |
| 2026-04-21 18:22 | 37.70399 | -90.86343 | 32183 ft | 464 kts | 337° |
| 2026-04-21 18:22 | 37.76457 | -90.88980 | 32176 ft | 464 kts | 337° |
| 2026-04-21 18:23 | 37.82567 | -90.91645 | 32171 ft | 464 kts | 338° |
| 2026-04-21 18:23 | 37.88666 | -90.94310 | 32172 ft | 462 kts | 338° |
| 2026-04-21 18:24 | 37.94762 | -90.96979 | 32152 ft | 463 kts | 338° |
| 2026-04-21 18:24 | 38.00812 | -90.99632 | 32173 ft | 464 kts | 337° |
| 2026-04-21 18:25 | 38.06686 | -91.02983 | 32172 ft | 461 kts | 331° |
| 2026-04-21 18:25 | 38.12410 | -91.06561 | 32195 ft | 458 kts | 331° |
| 2026-04-21 18:26 | 38.18122 | -91.10138 | 32204 ft | 459 kts | 330° |
| 2026-04-21 18:26 | 38.23833 | -91.13719 | 32195 ft | 458 kts | 331° |
| 2026-04-21 18:27 | 38.29525 | -91.17295 | 32194 ft | 458 kts | 331° |
| 2026-04-21 18:27 | 38.35242 | -91.20892 | 32214 ft | 458 kts | 331° |
| 2026-04-21 18:28 | 38.40976 | -91.24506 | 32165 ft | 458 kts | 331° |
| 2026-04-21 18:28 | 38.46655 | -91.28092 | 32120 ft | 456 kts | 331° |
| 2026-04-21 18:29 | 38.52329 | -91.31681 | 32128 ft | 458 kts | 331° |
| 2026-04-21 18:29 | 38.58009 | -91.35280 | 32135 ft | 455 kts | 331° |
| 2026-04-21 18:30 | 38.63689 | -91.38886 | 32121 ft | 457 kts | 331° |
| 2026-04-21 18:30 | 38.69363 | -91.42494 | 32114 ft | 454 kts | 331° |
| 2026-04-21 18:31 | 38.75033 | -91.46106 | 32096 ft | 457 kts | 331° |
| 2026-04-21 18:31 | 38.80719 | -91.49734 | 32118 ft | 456 kts | 331° |
| 2026-04-21 18:32 | 38.86372 | -91.53348 | 32092 ft | 454 kts | 331° |
| 2026-04-21 18:32 | 38.92001 | -91.56953 | 32084 ft | 453 kts | 331° |
| 2026-04-21 18:33 | 38.97660 | -91.60585 | 32097 ft | 455 kts | 331° |
| 2026-04-21 18:33 | 39.03278 | -91.64196 | 32070 ft | 451 kts | 332° |
| 2026-04-21 18:34 | 39.08937 | -91.67840 | 32113 ft | 455 kts | 331° |
| 2026-04-21 18:34 | 39.14560 | -91.71467 | 32128 ft | 452 kts | 331° |
| 2026-04-21 18:35 | 39.19235 | -91.74487 | 32121 ft | 451 kts | 331° |
| 2026-04-21 18:35 | 39.25778 | -91.78723 | 32134 ft | 452 kts | 331° |
| 2026-04-21 18:36 | 39.31395 | -91.82366 | 32108 ft | 453 kts | 331° |
| 2026-04-21 18:36 | 39.36988 | -91.86000 | 32084 ft | 451 kts | 331° |
| 2026-04-21 18:37 | 39.42622 | -91.89668 | 32065 ft | 451 kts | 331° |
| 2026-04-21 18:37 | 39.48212 | -91.93313 | 32063 ft | 452 kts | 331° |
| 2026-04-21 18:38 | 39.53810 | -91.96970 | 32038 ft | 450 kts | 331° |
| 2026-04-21 18:38 | 39.59391 | -92.00622 | 32040 ft | 449 kts | 331° |
| 2026-04-21 18:39 | 39.64970 | -92.04280 | 32038 ft | 451 kts | 331° |
| 2026-04-21 18:39 | 39.70532 | -92.07933 | 32042 ft | 450 kts | 331° |
| 2026-04-21 18:40 | 39.76137 | -92.11622 | 32031 ft | 450 kts | 331° |
| 2026-04-21 18:40 | 39.80756 | -92.14667 | 32017 ft | 449 kts | 331° |
| 2026-04-21 18:41 | 39.87244 | -92.18951 | 32039 ft | 451 kts | 331° |
| 2026-04-21 18:41 | 39.92845 | -92.22656 | 32007 ft | 449 kts | 332° |
| 2026-04-21 18:42 | 39.98394 | -92.26335 | 32021 ft | 450 kts | 331° |
| 2026-04-21 18:42 | 40.03983 | -92.30047 | 32022 ft | 451 kts | 331° |
| 2026-04-21 18:43 | 40.09583 | -92.33772 | 32019 ft | 448 kts | 332° |
| 2026-04-21 18:43 | 40.15161 | -92.37492 | 32027 ft | 450 kts | 332° |
| 2026-04-21 18:44 | 40.20721 | -92.41204 | 32055 ft | 451 kts | 332° |
| 2026-04-21 18:44 | 40.26288 | -92.44928 | 32026 ft | 448 kts | 331° |
| 2026-04-21 18:45 | 40.31869 | -92.48669 | 31999 ft | 451 kts | 331° |
| 2026-04-21 18:45 | 40.37412 | -92.52392 | 32005 ft | 450 kts | 332° |
| 2026-04-21 18:46 | 40.42989 | -92.56145 | 31999 ft | 451 kts | 332° |
| 2026-04-21 18:46 | 40.48565 | -92.59903 | 31996 ft | 451 kts | 332° |
| 2026-04-21 18:47 | 40.54135 | -92.63664 | 31993 ft | 450 kts | 332° |
| 2026-04-21 18:47 | 40.59703 | -92.67432 | 32009 ft | 451 kts | 331° |
| 2026-04-21 18:48 | 40.65249 | -92.71191 | 31995 ft | 449 kts | 331° |
| 2026-04-21 18:48 | 40.70789 | -92.74953 | 32029 ft | 451 kts | 331° |
| 2026-04-21 18:49 | 40.76358 | -92.78743 | 32027 ft | 449 kts | 331° |
| 2026-04-21 18:49 | 40.81062 | -92.81648 | 32004 ft | 452 kts | 334° |
| 2026-04-21 18:50 | 40.87739 | -92.85560 | 31985 ft | 449 kts | 334° |
| 2026-04-21 18:50 | 40.93456 | -92.88938 | 31972 ft | 452 kts | 334° |
| 2026-04-21 18:51 | 40.99171 | -92.92333 | 31993 ft | 450 kts | 334° |
| 2026-04-21 18:51 | 41.04868 | -92.95730 | 31957 ft | 449 kts | 334° |
| 2026-04-21 18:52 | 41.10532 | -92.99116 | 31962 ft | 450 kts | 334° |
| 2026-04-21 18:52 | 41.16214 | -93.02521 | 31990 ft | 448 kts | 334° |
| 2026-04-21 18:53 | 41.21871 | -93.05917 | 31984 ft | 447 kts | 334° |
| 2026-04-21 18:53 | 41.27555 | -93.09338 | 31984 ft | 448 kts | 334° |
| 2026-04-21 18:54 | 41.33210 | -93.12747 | 31995 ft | 447 kts | 334° |
| 2026-04-21 18:54 | 41.38856 | -93.16157 | 31993 ft | 444 kts | 334° |
| 2026-04-21 18:55 | 41.43565 | -93.19008 | 31992 ft | 446 kts | 334° |
| 2026-04-21 18:55 | 41.50112 | -93.22977 | 31975 ft | 445 kts | 334° |
| 2026-04-21 18:56 | 41.55752 | -93.26404 | 31956 ft | 447 kts | 334° |
| 2026-04-21 18:56 | 41.61370 | -93.29823 | 31980 ft | 444 kts | 334° |
| 2026-04-21 18:57 | 41.66985 | -93.33248 | 31941 ft | 443 kts | 334° |
| 2026-04-21 18:57 | 41.72561 | -93.36655 | 31979 ft | 443 kts | 334° |
| 2026-04-21 18:58 | 41.78189 | -93.40102 | 31954 ft | 442 kts | 334° |
| 2026-04-21 18:58 | 41.83778 | -93.43530 | 31980 ft | 441 kts | 334° |
| 2026-04-21 18:59 | 41.89355 | -93.46958 | 31968 ft | 442 kts | 334° |
| 2026-04-21 18:59 | 41.94917 | -93.50383 | 31956 ft | 443 kts | 334° |
| 2026-04-21 19:00 | 42.00490 | -93.53822 | 31957 ft | 439 kts | 334° |
| 2026-04-21 19:00 | 42.06057 | -93.57263 | 31961 ft | 440 kts | 334° |
| 2026-04-21 19:01 | 42.11628 | -93.60714 | 31934 ft | 440 kts | 334° |
| 2026-04-21 19:01 | 42.17169 | -93.64153 | 31939 ft | 440 kts | 334° |
| 2026-04-21 19:02 | 42.22744 | -93.67620 | 31929 ft | 441 kts | 333° |
| 2026-04-21 19:02 | 42.28272 | -93.71063 | 31927 ft | 439 kts | 333° |
| 2026-04-21 19:03 | 42.33804 | -93.74516 | 31926 ft | 437 kts | 333° |
| 2026-04-21 19:03 | 42.39325 | -93.77970 | 31935 ft | 439 kts | 333° |
| 2026-04-21 19:04 | 42.44820 | -93.81414 | 31943 ft | 438 kts | 333° |
| 2026-04-21 19:04 | 42.50324 | -93.84869 | 31965 ft | 438 kts | 333° |
| 2026-04-21 19:05 | 42.55849 | -93.88345 | 31944 ft | 439 kts | 333° |
| 2026-04-21 19:05 | 42.61368 | -93.91824 | 31956 ft | 437 kts | 333° |
| 2026-04-21 19:06 | 42.66869 | -93.95299 | 31935 ft | 438 kts | 333° |
| 2026-04-21 19:06 | 42.72360 | -93.98773 | 31930 ft | 436 kts | 333° |
| 2026-04-21 19:07 | 42.77854 | -94.02257 | 31927 ft | 434 kts | 333° |
| 2026-04-21 19:07 | 42.83336 | -94.05740 | 31939 ft | 436 kts | 333° |
| 2026-04-21 19:08 | 42.88809 | -94.09224 | 31920 ft | 435 kts | 333° |
| 2026-04-21 19:08 | 42.94313 | -94.12734 | 31913 ft | 437 kts | 333° |
| 2026-04-21 19:09 | 42.99797 | -94.16239 | 31929 ft | 437 kts | 333° |
| 2026-04-21 19:09 | 43.05279 | -94.19750 | 31942 ft | 435 kts | 333° |
| 2026-04-21 19:10 | 43.10748 | -94.23258 | 31935 ft | 436 kts | 333° |
| 2026-04-21 19:10 | 43.16227 | -94.26781 | 31945 ft | 435 kts | 333° |
| 2026-04-21 19:11 | 43.21672 | -94.30289 | 31950 ft | 435 kts | 333° |
| 2026-04-21 19:11 | 43.27132 | -94.33813 | 31938 ft | 433 kts | 333° |
| 2026-04-21 19:12 | 43.31675 | -94.36750 | 31932 ft | 433 kts | 333° |
| 2026-04-21 19:12 | 43.38033 | -94.40870 | 31931 ft | 435 kts | 333° |
| 2026-04-21 19:13 | 43.43469 | -94.44400 | 31936 ft | 432 kts | 333° |
| 2026-04-21 19:13 | 43.48915 | -94.47943 | 31943 ft | 433 kts | 333° |
| 2026-04-21 19:14 | 43.54331 | -94.51474 | 31957 ft | 434 kts | 333° |
| 2026-04-21 19:14 | 43.59778 | -94.55032 | 31959 ft | 432 kts | 333° |
| 2026-04-21 19:15 | 43.65192 | -94.58576 | 31929 ft | 431 kts | 333° |
| 2026-04-21 19:15 | 43.70626 | -94.62141 | 31940 ft | 434 kts | 333° |
| 2026-04-21 19:16 | 43.76054 | -94.65707 | 31950 ft | 431 kts | 332° |
| 2026-04-21 19:16 | 43.81475 | -94.69277 | 31933 ft | 431 kts | 333° |
| 2026-04-21 19:17 | 43.89568 | -94.74620 | 31949 ft | 431 kts | 333° |
| 2026-04-21 19:17 | 43.94989 | -94.78207 | 31933 ft | 431 kts | 333° |
| 2026-04-21 19:18 | 44.00365 | -94.81773 | 31964 ft | 431 kts | 333° |
| 2026-04-21 19:18 | 44.05770 | -94.85365 | 31956 ft | 430 kts | 333° |
| 2026-04-21 19:19 | 44.11163 | -94.88956 | 31945 ft | 431 kts | 333° |
| 2026-04-21 19:19 | 44.16540 | -94.92544 | 31955 ft | 427 kts | 333° |
| 2026-04-21 19:20 | 44.21893 | -94.96123 | 31931 ft | 431 kts | 333° |
| 2026-04-21 19:20 | 44.27282 | -94.99733 | 31923 ft | 428 kts | 333° |
| 2026-04-21 19:21 | 44.32644 | -95.03333 | 31934 ft | 430 kts | 333° |
| 2026-04-21 19:21 | 44.38004 | -95.06938 | 31931 ft | 428 kts | 333° |
| 2026-04-21 19:22 | 44.43354 | -95.10544 | 31957 ft | 427 kts | 333° |
| 2026-04-21 19:22 | 44.48692 | -95.14211 | 31959 ft | 429 kts | 331° |
| 2026-04-21 19:23 | 44.53902 | -95.18130 | 31945 ft | 425 kts | 330° |
| 2026-04-21 19:23 | 44.59141 | -95.22073 | 31948 ft | 428 kts | 330° |
| 2026-04-21 19:24 | 44.64342 | -95.25984 | 31956 ft | 424 kts | 330° |
| 2026-04-21 19:24 | 44.69556 | -95.29907 | 31956 ft | 427 kts | 331° |
| 2026-04-21 19:25 | 44.74773 | -95.33837 | 31959 ft | 425 kts | 331° |
| 2026-04-21 19:25 | 44.79964 | -95.37755 | 31959 ft | 424 kts | 331° |
| 2026-04-21 19:26 | 44.85136 | -95.41666 | 31987 ft | 425 kts | 330° |
| 2026-04-21 19:26 | 44.90317 | -95.45590 | 31970 ft | 425 kts | 330° |
| 2026-04-21 19:27 | 44.95500 | -95.49524 | 32009 ft | 422 kts | 331° |
| 2026-04-21 19:27 | 45.00683 | -95.53466 | 31981 ft | 423 kts | 330° |
| 2026-04-21 19:28 | 45.05834 | -95.57392 | 31970 ft | 422 kts | 330° |
| 2026-04-21 19:28 | 45.11019 | -95.61352 | 32017 ft | 422 kts | 330° |
| 2026-04-21 19:29 | 45.16212 | -95.65327 | 31973 ft | 422 kts | 330° |
| 2026-04-21 19:29 | 45.21339 | -95.69259 | 31996 ft | 421 kts | 330° |
| 2026-04-21 19:30 | 45.23888 | -95.71217 | 31542 ft | 416 kts | 330° |
| 2026-04-21 19:30 | 45.26409 | -95.73155 | 30784 ft | 417 kts | 329° |
| 2026-04-21 19:30 | 45.28962 | -95.75120 | 30355 ft | 411 kts | 329° |
| 2026-04-21 19:30 | 45.31449 | -95.77035 | 29964 ft | 410 kts | 330° |
| 2026-04-21 19:31 | 45.34017 | -95.79018 | 29573 ft | 426 kts | 329° |
| 2026-04-21 19:31 | 45.36601 | -95.81014 | 29094 ft | 427 kts | 329° |
| 2026-04-21 19:31 | 45.39172 | -95.83000 | 28613 ft | 423 kts | 329° |
| 2026-04-21 19:31 | 45.41748 | -95.84993 | 28165 ft | 418 kts | 329° |
| 2026-04-21 19:32 | 45.44296 | -95.86965 | 27699 ft | 414 kts | 329° |
| 2026-04-21 19:32 | 45.46821 | -95.88923 | 27206 ft | 413 kts | 329° |
| 2026-04-21 19:32 | 45.49306 | -95.90852 | 26725 ft | 411 kts | 329° |
| 2026-04-21 19:32 | 45.51820 | -95.92804 | 26257 ft | 408 kts | 329° |
| 2026-04-21 19:33 | 45.53462 | -95.94080 | 25937 ft | 407 kts | 329° |
| 2026-04-21 19:33 | 45.56740 | -95.96632 | 25287 ft | 404 kts | 329° |
| 2026-04-21 19:33 | 45.59202 | -95.98551 | 24809 ft | 401 kts | 329° |
| 2026-04-21 19:33 | 45.61643 | -96.00455 | 24305 ft | 398 kts | 329° |
| 2026-04-21 19:34 | 45.64050 | -96.02334 | 23828 ft | 396 kts | 329° |
| 2026-04-21 19:34 | 45.66441 | -96.04203 | 23353 ft | 394 kts | 329° |
| 2026-04-21 19:34 | 45.68843 | -96.06082 | 22864 ft | 393 kts | 329° |
| 2026-04-21 19:34 | 45.71240 | -96.07959 | 22379 ft | 390 kts | 329° |
| 2026-04-21 19:35 | 45.73587 | -96.09799 | 21893 ft | 386 kts | 329° |
| 2026-04-21 19:35 | 45.78257 | -96.13464 | 20934 ft | 380 kts | 329° |
| 2026-04-21 19:35 | 45.80537 | -96.15256 | 20447 ft | 378 kts | 329° |
| 2026-04-21 19:36 | 45.82850 | -96.17078 | 19957 ft | 375 kts | 329° |
| 2026-04-21 19:36 | 45.85095 | -96.18845 | 19486 ft | 371 kts | 329° |
| 2026-04-21 19:36 | 45.87357 | -96.20628 | 19006 ft | 368 kts | 329° |
| 2026-04-21 19:36 | 45.89594 | -96.22395 | 18528 ft | 367 kts | 329° |
| 2026-04-21 19:37 | 45.91813 | -96.24147 | 18040 ft | 364 kts | 329° |
| 2026-04-21 19:37 | 45.94030 | -96.25899 | 17565 ft | 362 kts | 329° |
| 2026-04-21 19:37 | 45.96201 | -96.27618 | 17115 ft | 360 kts | 330° |
| 2026-04-21 19:37 | 45.98405 | -96.29363 | 16634 ft | 360 kts | 329° |
| 2026-04-21 19:38 | 46.00577 | -96.31085 | 16161 ft | 357 kts | 330° |
| 2026-04-21 19:38 | 46.02736 | -96.32798 | 15625 ft | 356 kts | 330° |
| 2026-04-21 19:38 | 46.04190 | -96.33952 | 15187 ft | 357 kts | 330° |
| 2026-04-21 19:38 | 46.07077 | -96.36247 | 14449 ft | 355 kts | 330° |
| 2026-04-21 19:39 | 46.09232 | -96.37962 | 13950 ft | 352 kts | 330° |
| 2026-04-21 19:39 | 46.11345 | -96.39644 | 13486 ft | 348 kts | 330° |
| 2026-04-21 19:39 | 46.13447 | -96.41319 | 13034 ft | 344 kts | 330° |
| 2026-04-21 19:39 | 46.15526 | -96.42977 | 12567 ft | 340 kts | 330° |
| 2026-04-21 19:40 | 46.17585 | -96.44621 | 12123 ft | 336 kts | 330° |
| 2026-04-21 19:40 | 46.19604 | -96.46235 | 11673 ft | 333 kts | 330° |
| 2026-04-21 19:40 | 46.21605 | -96.47835 | 11226 ft | 331 kts | 330° |
| 2026-04-21 19:40 | 46.23617 | -96.49445 | 10778 ft | 328 kts | 330° |
| 2026-04-21 19:41 | 46.25590 | -96.51025 | 10535 ft | 318 kts | 330° |
| 2026-04-21 19:41 | 46.27476 | -96.52537 | 10463 ft | 305 kts | 331° |
| 2026-04-21 19:41 | 46.29296 | -96.53998 | 10369 ft | 292 kts | 330° |
| 2026-04-21 19:41 | 46.31028 | -96.55389 | 10255 ft | 281 kts | 330° |
| 2026-04-21 19:42 | 46.32704 | -96.56735 | 10136 ft | 271 kts | 330° |
| 2026-04-21 19:42 | 46.34329 | -96.58042 | 10017 ft | 261 kts | 331° |
| 2026-04-21 19:42 | 46.35873 | -96.59284 | 9906 ft | 251 kts | 330° |
| 2026-04-21 19:42 | 46.37365 | -96.60486 | 9811 ft | 241 kts | 330° |
| 2026-04-21 19:43 | 46.38871 | -96.61699 | 9520 ft | 254 kts | 330° |
| 2026-04-21 19:43 | 46.40426 | -96.62952 | 9158 ft | 255 kts | 331° |
| 2026-04-21 19:43 | 46.41964 | -96.64193 | 8810 ft | 254 kts | 331° |
| 2026-04-21 19:43 | 46.43507 | -96.65439 | 8533 ft | 252 kts | 330° |
| 2026-04-21 19:44 | 46.45014 | -96.66657 | 8234 ft | 250 kts | 330° |
| 2026-04-21 19:44 | 46.46534 | -96.67885 | 7932 ft | 249 kts | 330° |
| 2026-04-21 19:44 | 46.48048 | -96.69110 | 7655 ft | 250 kts | 330° |
| 2026-04-21 19:44 | 46.49577 | -96.70347 | 7330 ft | 251 kts | 331° |
| 2026-04-21 19:45 | 46.51098 | -96.71578 | 7016 ft | 250 kts | 331° |
| 2026-04-21 19:45 | 46.52594 | -96.72791 | 6717 ft | 247 kts | 331° |
| 2026-04-21 19:45 | 46.54100 | -96.74012 | 6421 ft | 247 kts | 331° |
| 2026-04-21 19:45 | 46.55561 | -96.75198 | 6316 ft | 235 kts | 331° |
| 2026-04-21 19:46 | 46.56950 | -96.76326 | 6253 ft | 222 kts | 331° |
| 2026-04-21 19:46 | 46.58252 | -96.77386 | 6159 ft | 211 kts | 332° |
| 2026-04-21 19:46 | 46.59499 | -96.78398 | 6080 ft | 199 kts | 332° |
| 2026-04-21 19:46 | 46.60675 | -96.79354 | 5996 ft | 185 kts | 332° |
| 2026-04-21 19:47 | 46.61749 | -96.80236 | 5937 ft | 172 kts | 330° |
| 2026-04-21 19:47 | 46.62764 | -96.81136 | 5881 ft | 171 kts | 331° |
| 2026-04-21 19:47 | 46.63864 | -96.81783 | 5806 ft | 170 kts | 347° |
| 2026-04-21 19:47 | 46.65048 | -96.81993 | 5634 ft | 173 kts | 356° |
| 2026-04-21 19:48 | 46.66228 | -96.82021 | 5360 ft | 170 kts | 359° |
| 2026-04-21 19:48 | 46.67414 | -96.81992 | 5127 ft | 171 kts | 0° |
| 2026-04-21 19:48 | 46.68610 | -96.81953 | 4896 ft | 170 kts | 0° |
| 2026-04-21 19:48 | 46.69793 | -96.81927 | 4671 ft | 170 kts | 0° |
| 2026-04-21 19:49 | 46.70969 | -96.81908 | 4455 ft | 170 kts | 0° |
| 2026-04-21 19:49 | 46.72155 | -96.81892 | 4233 ft | 171 kts | 0° |
| 2026-04-21 19:49 | 46.73342 | -96.81878 | 4007 ft | 171 kts | 0° |
| 2026-04-21 19:49 | 46.74530 | -96.81863 | 3777 ft | 170 kts | 1° |
| 2026-04-21 19:50 | 46.75308 | -96.81852 | 3633 ft | 171 kts | 1° |
| 2026-04-21 19:50 | 46.76887 | -96.81831 | 3327 ft | 171 kts | 1° |
| 2026-04-21 19:50 | 46.78086 | -96.81815 | 3097 ft | 172 kts | 1° |
| 2026-04-21 19:50 | 46.79280 | -96.81799 | 2865 ft | 171 kts | 1° |
| 2026-04-21 19:51 | 46.80472 | -96.81782 | 2637 ft | 172 kts | 1° |
| 2026-04-21 19:51 | 46.81657 | -96.81767 | 2410 ft | 171 kts | 1° |
| 2026-04-21 19:51 | 46.82849 | -96.81750 | 2185 ft | 172 kts | 1° |
| 2026-04-21 19:51 | 46.84056 | -96.81735 | 1952 ft | 172 kts | 1° |
| 2026-04-21 19:52 | 46.85232 | -96.81719 | 1721 ft | 166 kts | 1° |
| 2026-04-21 19:52 | 46.86369 | -96.81699 | 1651 ft | 159 kts | 1° |
| 2026-04-21 19:52 | 46.87443 | -96.81669 | 1618 ft | 148 kts | 1° |
| 2026-04-21 19:52 | 46.88444 | -96.81664 | 1360 ft | 143 kts | 1° |
| 2026-04-21 19:53 | 46.89441 | -96.81658 | 1191 ft | 142 kts | 1° |
| 2026-04-21 19:53 | 46.90430 | -96.81645 | 996 ft | 142 kts | 1° |
| 2026-04-21 19:53 | 46.91357 | -96.81632 | 908 ft | 120 kts | 360° |
| 2026-04-21 19:53 | 46.92076 | -96.81628 | 908 ft | 84 kts | 0° |
| 2026-04-21 19:54 | 46.92535 | -96.81625 | 908 ft | 49 kts | 0° |
| 2026-04-21 19:54 | 46.92755 | -96.81619 | 907 ft | 13 kts | 1° |
| 2026-04-21 19:54 | 46.92773 | -96.81619 | 907 ft | 0 kts | 1° |
| 2026-04-21 19:57 | 46.92801 | -96.81625 | 907 ft | 8 kts | 333° |
| 2026-04-21 19:57 | 46.92816 | -96.81702 | 908 ft | 1 kts | 270° |
| 2026-04-21 19:59 | 46.92816 | -96.81706 | 907 ft | 0 kts | 270° |
| 2026-04-21 20:01 | 46.92816 | -96.81719 | 907 ft | 6 kts | 271° |
| 2026-04-21 20:01 | 46.92818 | -96.81791 | 908 ft | 7 kts | 271° |
| 2026-04-21 20:02 | 46.92818 | -96.81838 | 907 ft | 6 kts | 271° |
| 2026-04-21 20:02 | 46.92820 | -96.81930 | 907 ft | 6 kts | 271° |
| 2026-04-21 20:02 | 46.92822 | -96.81995 | 907 ft | 6 kts | 271° |
| 2026-04-21 20:02 | 46.92822 | -96.82060 | 907 ft | 6 kts | 271° |
| 2026-04-21 20:03 | 46.92822 | -96.82124 | 907 ft | 7 kts | 269° |
| 2026-04-21 20:03 | 46.92822 | -96.82220 | 906 ft | 13 kts | 269° |
| 2026-04-21 20:03 | 46.92870 | -96.82329 | 904 ft | 16 kts | 4° |
| 2026-04-21 20:03 | 46.92920 | -96.82220 | 906 ft | 12 kts | 93° |
| 2026-04-21 20:04 | 46.92916 | -96.82103 | 907 ft | 10 kts | 93° |
| 2026-04-21 20:04 | 46.92945 | -96.82044 | 907 ft | 5 kts | 18° |
| 2026-04-21 20:04 | 46.92954 | -96.82063 | 907 ft | 1 kts | 246° |
| 2026-04-21 20:04 | 46.92953 | -96.82065 | 907 ft | 0 kts | 236° |